Queen Of Cowichan — CZ4990 — position and weather

sailwx.info

Track history (hours):
 
Tides and Currents Weather Stations Pressure Air Temp Water Temp Dewpoint Dewpoint Depression Visibility Wind Speed Wind Dir Waves Ship Positions

Queen Of Cowichan

Last reported at 2015-Mar-04 02:34 UTC. Time now 2015-Mar-04 02:48 UTC.
Position N 49°12' W 123°56'.

Length 139 m; draft 5.5 m.

Type: Passenger vessel. MMSI: 316001251.

Date/timePositionNaut miles runAvg speedWind from/ knotsBaromVisibWave heightAir tempDewpointWater temp
2015-Mar-04 02:34N 49°12' W 123°56'2019.5
2015-Mar-04 01:34N 49°19' W 123°28'9 8.6
2015-Mar-04 00:33N 49°23' W 123°17'1918.8
2015-Mar-03 23:33N 49°15' W 123°43'10 7.0
2015-Mar-03 22:09N 49°12' W 123°57'1219.6
2015-Mar-03 21:33N 49°17' W 123°41'1712.6
2015-Mar-03 20:12N 49°23' W 123°16'1117.1
2015-Mar-03 19:34N 49°17' W 123°31'1813.7
2015-Mar-03 18:14N 49°12' W 123°57'1115.7
2015-Mar-03 17:33N 49°16' W 123°42'1918.5
2015-Mar-03 16:33N 49°23' W 123°16'10 9.6
2015-Mar-03 15:33N 49°18' W 123°29'1919.1
2015-Mar-03 14:34N 49°12' W 123°57'1 0.7
2015-Mar-03 13:30N 49°12' W 123°57'0 0.0
2015-Mar-03 12:33N 49°12' W 123°57'0 0.0
2015-Mar-03 11:33N 49°12' W 123°57'0 0.0
2015-Mar-03 10:33N 49°12' W 123°57'0 0.0
2015-Mar-03 09:30N 49°12' W 123°57'0 0.0
2015-Mar-03 08:30N 49°12' W 123°57'0 0.0
2015-Mar-03 07:12N 49°12' W 123°57'0 0.0
2015-Mar-03 06:30N 49°12' W 123°57'0 0.0
2015-Mar-03 05:24N 49°12' W 123°57'0 0.5
2015-Mar-03 04:33N 49°12' W 123°57'0 0.5
2015-Mar-03 03:33N 49°12' W 123°57'1 1.1
2015-Mar-03 02:33N 49°12' W 123°56'1919.4
2015-Mar-03 01:34N 49°19' W 123°28'9 8.6
2015-Mar-03 00:33N 49°23' W 123°17'1918.6
2015-Mar-02 23:34N 49°15' W 123°42'10 7.6
2015-Mar-02 22:16N 49°12' W 123°57'1419.0
2015-Mar-02 21:33N 49°17' W 123°37'1511.3
2015-Mar-02 20:14N 49°23' W 123°16'1117.1
2015-Mar-02 19:34N 49°17' W 123°31'1815.7
2015-Mar-02 18:25N 49°12' W 123°57'1213.6
2015-Mar-02 17:34N 49°16' W 123°41'1712.8
2015-Mar-02 16:13N 49°23' W 123°16'913.5
2015-Mar-02 15:33N 49°17' W 123°27'2019.6
2015-Mar-02 14:33N 49°12' W 123°56'1 0.9
2015-Mar-02 13:33N 49°12' W 123°57'6 0.9
2015-Mar-02 06:33N 49°15' W 123°50'2019.9
2015-Mar-02 05:33N 49°21' W 123°20'3 2.8
2015-Mar-02 04:33N 49°19' W 123°24'2020.1
2015-Mar-02 03:33N 49°13' W 123°53'1 1.1
2015-Mar-02 02:34N 49°14' W 123°52'1919.3
2015-Mar-02 01:34N 49°19' W 123°23'6 5.8
2015-Mar-02 00:33N 49°23' W 123°17'1918.7
2015-Mar-01 23:33N 49°15' W 123°42'10 8.2
2015-Mar-01 22:19N 49°12' W 123°57'1417.9
2015-Mar-01 21:34N 49°17' W 123°38'1512.5
2015-Mar-01 20:21N 49°23' W 123°16'911.9
2015-Mar-01 19:34N 49°18' W 123°29'2019.5
2015-Mar-01 18:33N 49°12' W 123°57'1010.1
2015-Mar-01 17:34N 49°16' W 123°43'1918.9
2015-Mar-01 16:34N 49°23' W 123°17'9 9.0
2015-Mar-01 15:33N 49°18' W 123°28'2019.7
2015-Mar-01 14:33N 49°12' W 123°57'1 0.1
2015-Mar-01 08:24N 49°12' W 123°57'1 0.3
2015-Mar-01 06:34N 49°12' W 123°57'2019.6
2015-Mar-01 05:33N 49°19' W 123°29'8 8.4
2015-Mar-01 04:33N 49°23' W 123°18'1918.9
2015-Mar-01 03:33N 49°15' W 123°44'9 9.1
2015-Mar-01 02:33N 49°12' W 123°57'1919.4
2015-Mar-01 01:34N 49°18' W 123°29'9 9.2
2015-Mar-01 00:33N 49°23' W 123°17'1918.9
2015-Feb-28 23:33N 49°15' W 123°43'10 8.2
2015-Feb-28 22:20N 49°12' W 123°57'1417.8
2015-Feb-28 21:33N 49°17' W 123°38'1511.1
2015-Feb-28 20:13N 49°23' W 123°16'1116.5
2015-Feb-28 19:33N 49°17' W 123°31'1813.0
2015-Feb-28 18:10N 49°12' W 123°57'1017.0
2015-Feb-28 17:34N 49°16' W 123°43'1918.9
2015-Feb-28 16:33N 49°23' W 123°16'9 8.8
2015-Feb-28 15:34N 49°18' W 123°27'2019.8
2015-Feb-28 14:34N 49°12' W 123°56'1 0.8
2015-Feb-28 13:14N 49°12' W 123°57'0 0.0
2015-Feb-28 10:32N 49°12' W 123°57'5 1.2
2015-Feb-28 06:33N 49°14' W 123°51'2020.0
2015-Feb-28 05:34N 49°20' W 123°21'1 0.8
2015-Feb-28 04:33N 49°19' W 123°22'2019.8
2015-Feb-28 03:33N 49°14' W 123°51'1 0.7
2015-Feb-28 02:34N 49°14' W 123°53'2019.8
2015-Feb-28 01:34N 49°20' W 123°24'6 5.9
2015-Feb-28 00:33N 49°23' W 123°16'1918.5
2015-Feb-27 23:33N 49°15' W 123°42'11 8.6
2015-Feb-27 22:20N 49°12' W 123°57'1417.7
2015-Feb-27 21:33N 49°17' W 123°38'1511.6
2015-Feb-27 20:15N 49°23' W 123°16'1115.9
2015-Feb-27 19:33N 49°17' W 123°31'1817.0
2015-Feb-27 18:30N 49°12' W 123°57'1010.8
2015-Feb-27 17:33N 49°16' W 123°43'1918.9
2015-Feb-27 16:33N 49°23' W 123°16'9 9.1
2015-Feb-27 15:33N 49°17' W 123°27'2019.8
2015-Feb-27 14:33N 49°12' W 123°57'1 0.5
2015-Feb-27 13:15N 49°12' W 123°57'0 0.0
2015-Feb-27 11:09N 49°12' W 123°57'0 0.0
2015-Feb-27 09:21N 49°12' W 123°57'0 0.0
2015-Feb-27 08:27N 49°12' W 123°57'0 0.0
2015-Feb-27 07:27N 49°12' W 123°57'0 0.0
2015-Feb-27 05:17N 49°12' W 123°57'0 0.6
2015-Feb-27 04:33N 49°12' W 123°57'0 0.3
2015-Feb-27 03:08N 49°12' W 123°57'4 7.3
2015-Feb-27 02:33N 49°14' W 123°52'1818.3
2015-Feb-27 01:34N 49°19' W 123°25'7 6.9
2015-Feb-27 00:33N 49°23' W 123°17'1918.7
2015-Feb-26 23:34N 49°15' W 123°43'9 7.4
2015-Feb-26 22:17N 49°12' W 123°57'1419.6
2015-Feb-26 21:34N 49°17' W 123°36'1410.7
2015-Feb-26 20:14N 49°23' W 123°16'1217.2
2015-Feb-26 19:33N 49°17' W 123°32'1813.1
2015-Feb-26 18:13N 49°12' W 123°57'1116.4
2015-Feb-26 17:34N 49°16' W 123°42'1818.2
2015-Feb-26 16:33N 49°23' W 123°16'9 9.2
2015-Feb-26 15:33N 49°18' W 123°28'1919.4
2015-Feb-26 14:33N 49°12' W 123°57'1 0.1
2015-Feb-26 05:22N 49°12' W 123°57'0 0.0
2015-Feb-26 03:17N 49°12' W 123°57'4 5.8
2015-Feb-26 02:32N 49°14' W 123°52'1717.6
2015-Feb-26 01:34N 49°19' W 123°27'7 7.5
2015-Feb-26 00:33N 49°23' W 123°17'1919.1
2015-Feb-25 23:33N 49°15' W 123°43'10 8.7
2015-Feb-25 22:27N 49°12' W 123°57'1617.9
2015-Feb-25 21:34N 49°17' W 123°35'1311.1
2015-Feb-25 20:23N 49°23' W 123°16'1417.0
2015-Feb-25 19:34N 49°16' W 123°35'1512.4
2015-Feb-25 18:21N 49°12' W 123°57'1417.8
2015-Feb-25 17:34N 49°17' W 123°37'1510.7
2015-Feb-25 16:10N 49°23' W 123°16'914.9
2015-Feb-25 15:33N 49°18' W 123°28'2019.7
2015-Feb-25 14:33N 49°12' W 123°57'1 0.1
2015-Feb-25 05:20N 49°12' W 123°57'0 0.5
2015-Feb-25 04:33N 49°12' W 123°57'2 1.2
2015-Feb-25 02:33N 49°13' W 123°54'1918.7
2015-Feb-25 01:33N 49°19' W 123°27'8 7.7
2015-Feb-25 00:34N 49°23' W 123°17'1918.5
2015-Feb-24 23:33N 49°15' W 123°42'10 7.4
2015-Feb-24 22:12N 49°12' W 123°57'1218.6
2015-Feb-24 21:33N 49°17' W 123°40'1712.2
2015-Feb-24 20:11N 49°23' W 123°16'915.2
2015-Feb-24 19:34N 49°18' W 123°29'2013.8
2015-Feb-24 18:08N 49°12' W 123°57'1016.7
2015-Feb-24 17:34N 49°16' W 123°44'1919.2
2015-Feb-24 16:34N 49°23' W 123°17'9 9.2
2015-Feb-24 15:34N 49°18' W 123°28'2019.5
2015-Feb-24 14:33N 49°12' W 123°57'1 0.1
2015-Feb-24 05:08N 49°12' W 123°57'0 0.3
2015-Feb-24 04:33N 49°12' W 123°57'0 0.2
2015-Feb-24 03:14N 49°12' W 123°57'4 6.6
2015-Feb-24 02:34N 49°14' W 123°52'2019.7
2015-Feb-24 01:34N 49°20' W 123°23'5 5.0
2015-Feb-24 00:34N 49°23' W 123°17'1818.5
2015-Feb-23 23:33N 49°15' W 123°43'10 7.3
2015-Feb-23 22:13N 49°12' W 123°57'1219.1
2015-Feb-23 21:34N 49°17' W 123°39'1612.8
2015-Feb-23 20:17N 49°23' W 123°16'1014.0
2015-Feb-23 19:33N 49°17' W 123°30'1912.6
2015-Feb-23 18:05N 49°12' W 123°57'1018.8
2015-Feb-23 17:33N 49°16' W 123°43'1919.0
2015-Feb-23 16:33N 49°23' W 123°16'9 9.0
2015-Feb-23 15:34N 49°18' W 123°27'2019.7
2015-Feb-23 14:33N 49°12' W 123°57'4 0.5
2015-Feb-23 06:34N 49°14' W 123°51'2020.1
2015-Feb-23 05:33N 49°20' W 123°22'1 0.6
2015-Feb-23 04:33N 49°20' W 123°21'2020.1
2015-Feb-23 03:33N 49°14' W 123°51'2 1.6
2015-Feb-23 02:33N 49°14' W 123°53'2019.8
2015-Feb-23 01:34N 49°19' W 123°24'6 5.9
2015-Feb-23 00:33N 49°23' W 123°17'1919.1
2015-Feb-22 23:33N 49°15' W 123°43'9 7.4
2015-Feb-22 22:18N 49°12' W 123°57'1419.4
2015-Feb-22 21:33N 49°17' W 123°37'1410.9
2015-Feb-22 20:14N 49°23' W 123°16'1116.4
2015-Feb-22 19:33N 49°17' W 123°31'1812.1
2015-Feb-22 18:05N 49°12' W 123°57'1019.0
2015-Feb-22 17:33N 49°16' W 123°43'1918.6
2015-Feb-22 16:33N 49°23' W 123°16'9 9.1
2015-Feb-22 15:33N 49°18' W 123°28'2019.8
2015-Feb-22 14:33N 49°12' W 123°57'0 0.0
2015-Feb-22 06:33N 49°12' W 123°57'1919.3
2015-Feb-22 05:34N 49°19' W 123°29'8 8.2
2015-Feb-22 04:34N 49°23' W 123°18'1919.4
2015-Feb-22 03:34N 49°15' W 123°45'  
Track history (hours):
 
Tides and Currents Weather Stations Pressure Air Temp Water Temp Dewpoint Dewpoint Depression Visibility Wind Speed Wind Dir Waves Ship Positions

Queen Of Cowichan

Last reported at 2015-Mar-04 02:34 UTC. Time now 2015-Mar-04 02:48 UTC.
Position N 49°12' W 123°56'.

Length 139 m; draft 5.5 m.

Type: Passenger vessel. MMSI: 316001251.

Date/timePositionNaut miles runAvg speedWind from/ knotsBaromVisibWave heightAir tempDewpointWater temp
2015-Mar-04 02:34N 49°12' W 123°56'2019.5
2015-Mar-04 01:34N 49°19' W 123°28'9 8.6
2015-Mar-04 00:33N 49°23' W 123°17'1918.8
2015-Mar-03 23:33N 49°15' W 123°43'10 7.0
2015-Mar-03 22:09N 49°12' W 123°57'1219.6
2015-Mar-03 21:33N 49°17' W 123°41'1712.6
2015-Mar-03 20:12N 49°23' W 123°16'1117.1
2015-Mar-03 19:34N 49°17' W 123°31'1813.7
2015-Mar-03 18:14N 49°12' W 123°57'1115.7
2015-Mar-03 17:33N 49°16' W 123°42'1918.5
2015-Mar-03 16:33N 49°23' W 123°16'10 9.6
2015-Mar-03 15:33N 49°18' W 123°29'1919.1
2015-Mar-03 14:34N 49°12' W 123°57'1 0.7
2015-Mar-03 13:30N 49°12' W 123°57'0 0.0
2015-Mar-03 12:33N 49°12' W 123°57'0 0.0
2015-Mar-03 11:33N 49°12' W 123°57'0 0.0
2015-Mar-03 10:33N 49°12' W 123°57'0 0.0
2015-Mar-03 09:30N 49°12' W 123°57'0 0.0
2015-Mar-03 08:30N 49°12' W 123°57'0 0.0
2015-Mar-03 07:12N 49°12' W 123°57'0 0.0
2015-Mar-03 06:30N 49°12' W 123°57'0 0.0
2015-Mar-03 05:24N 49°12' W 123°57'0 0.5
2015-Mar-03 04:33N 49°12' W 123°57'0 0.5
2015-Mar-03 03:33N 49°12' W 123°57'1 1.1
2015-Mar-03 02:33N 49°12' W 123°56'1919.4
2015-Mar-03 01:34N 49°19' W 123°28'9 8.6
2015-Mar-03 00:33N 49°23' W 123°17'1918.6
2015-Mar-02 23:34N 49°15' W 123°42'10 7.6
2015-Mar-02 22:16N 49°12' W 123°57'1419.0
2015-Mar-02 21:33N 49°17' W 123°37'1511.3
2015-Mar-02 20:14N 49°23' W 123°16'1117.1
2015-Mar-02 19:34N 49°17' W 123°31'1815.7
2015-Mar-02 18:25N 49°12' W 123°57'1213.6
2015-Mar-02 17:34N 49°16' W 123°41'1712.8
2015-Mar-02 16:13N 49°23' W 123°16'913.5
2015-Mar-02 15:33N 49°17' W 123°27'2019.6
2015-Mar-02 14:33N 49°12' W 123°56'1 0.9
2015-Mar-02 13:33N 49°12' W 123°57'6 0.9
2015-Mar-02 06:33N 49°15' W 123°50'2019.9
2015-Mar-02 05:33N 49°21' W 123°20'3 2.8
2015-Mar-02 04:33N 49°19' W 123°24'2020.1
2015-Mar-02 03:33N 49°13' W 123°53'1 1.1
2015-Mar-02 02:34N 49°14' W 123°52'1919.3
2015-Mar-02 01:34N 49°19' W 123°23'6 5.8
2015-Mar-02 00:33N 49°23' W 123°17'1918.7
2015-Mar-01 23:33N 49°15' W 123°42'10 8.2
2015-Mar-01 22:19N 49°12' W 123°57'1417.9
2015-Mar-01 21:34N 49°17' W 123°38'1512.5
2015-Mar-01 20:21N 49°23' W 123°16'911.9
2015-Mar-01 19:34N 49°18' W 123°29'2019.5
2015-Mar-01 18:33N 49°12' W 123°57'1010.1
2015-Mar-01 17:34N 49°16' W 123°43'1918.9
2015-Mar-01 16:34N 49°23' W 123°17'9 9.0
2015-Mar-01 15:33N 49°18' W 123°28'2019.7
2015-Mar-01 14:33N 49°12' W 123°57'1 0.1
2015-Mar-01 08:24N 49°12' W 123°57'1 0.3
2015-Mar-01 06:34N 49°12' W 123°57'2019.6
2015-Mar-01 05:33N 49°19' W 123°29'8 8.4
2015-Mar-01 04:33N 49°23' W 123°18'1918.9
2015-Mar-01 03:33N 49°15' W 123°44'9 9.1
2015-Mar-01 02:33N 49°12' W 123°57'1919.4
2015-Mar-01 01:34N 49°18' W 123°29'9 9.2
2015-Mar-01 00:33N 49°23' W 123°17'1918.9
2015-Feb-28 23:33N 49°15' W 123°43'10 8.2
2015-Feb-28 22:20N 49°12' W 123°57'1417.8
2015-Feb-28 21:33N 49°17' W 123°38'1511.1
2015-Feb-28 20:13N 49°23' W 123°16'1116.5
2015-Feb-28 19:33N 49°17' W 123°31'1813.0
2015-Feb-28 18:10N 49°12' W 123°57'1017.0
2015-Feb-28 17:34N 49°16' W 123°43'1918.9
2015-Feb-28 16:33N 49°23' W 123°16'9 8.8
2015-Feb-28 15:34N 49°18' W 123°27'2019.8
2015-Feb-28 14:34N 49°12' W 123°56'1 0.8
2015-Feb-28 13:14N 49°12' W 123°57'0 0.0
2015-Feb-28 10:32N 49°12' W 123°57'5 1.2
2015-Feb-28 06:33N 49°14' W 123°51'2020.0
2015-Feb-28 05:34N 49°20' W 123°21'1 0.8
2015-Feb-28 04:33N 49°19' W 123°22'2019.8
2015-Feb-28 03:33N 49°14' W 123°51'1 0.7
2015-Feb-28 02:34N 49°14' W 123°53'2019.8
2015-Feb-28 01:34N 49°20' W 123°24'6 5.9
2015-Feb-28 00:33N 49°23' W 123°16'1918.5
2015-Feb-27 23:33N 49°15' W 123°42'11 8.6
2015-Feb-27 22:20N 49°12' W 123°57'1417.7
2015-Feb-27 21:33N 49°17' W 123°38'1511.6
2015-Feb-27 20:15N 49°23' W 123°16'1115.9
2015-Feb-27 19:33N 49°17' W 123°31'1817.0
2015-Feb-27 18:30N 49°12' W 123°57'1010.8
2015-Feb-27 17:33N 49°16' W 123°43'1918.9
2015-Feb-27 16:33N 49°23' W 123°16'9 9.1
2015-Feb-27 15:33N 49°17' W 123°27'2019.8
2015-Feb-27 14:33N 49°12' W 123°57'1 0.5
2015-Feb-27 13:15N 49°12' W 123°57'0 0.0
2015-Feb-27 11:09N 49°12' W 123°57'0 0.0
2015-Feb-27 09:21N 49°12' W 123°57'0 0.0
2015-Feb-27 08:27N 49°12' W 123°57'0 0.0
2015-Feb-27 07:27N 49°12' W 123°57'0 0.0
2015-Feb-27 05:17N 49°12' W 123°57'0 0.6
2015-Feb-27 04:33N 49°12' W 123°57'0 0.3
2015-Feb-27 03:08N 49°12' W 123°57'4 7.3
2015-Feb-27 02:33N 49°14' W 123°52'1818.3
2015-Feb-27 01:34N 49°19' W 123°25'7 6.9
2015-Feb-27 00:33N 49°23' W 123°17'1918.7
2015-Feb-26 23:34N 49°15' W 123°43'9 7.4
2015-Feb-26 22:17N 49°12' W 123°57'1419.6
2015-Feb-26 21:34N 49°17' W 123°36'1410.7
2015-Feb-26 20:14N 49°23' W 123°16'1217.2
2015-Feb-26 19:33N 49°17' W 123°32'1813.1
2015-Feb-26 18:13N 49°12' W 123°57'1116.4
2015-Feb-26 17:34N 49°16' W 123°42'1818.2
2015-Feb-26 16:33N 49°23' W 123°16'9 9.2
2015-Feb-26 15:33N 49°18' W 123°28'1919.4
2015-Feb-26 14:33N 49°12' W 123°57'1 0.1
2015-Feb-26 05:22N 49°12' W 123°57'0 0.0
2015-Feb-26 03:17N 49°12' W 123°57'4 5.8
2015-Feb-26 02:32N 49°14' W 123°52'1717.6
2015-Feb-26 01:34N 49°19' W 123°27'7 7.5
2015-Feb-26 00:33N 49°23' W 123°17'1919.1
2015-Feb-25 23:33N 49°15' W 123°43'10 8.7
2015-Feb-25 22:27N 49°12' W 123°57'1617.9
2015-Feb-25 21:34N 49°17' W 123°35'1311.1
2015-Feb-25 20:23N 49°23' W 123°16'1417.0
2015-Feb-25 19:34N 49°16' W 123°35'1512.4
2015-Feb-25 18:21N 49°12' W 123°57'1417.8
2015-Feb-25 17:34N 49°17' W 123°37'1510.7
2015-Feb-25 16:10N 49°23' W 123°16'914.9
2015-Feb-25 15:33N 49°18' W 123°28'2019.7
2015-Feb-25 14:33N 49°12' W 123°57'1 0.1
2015-Feb-25 05:20N 49°12' W 123°57'0 0.5
2015-Feb-25 04:33N 49°12' W 123°57'2 1.2
2015-Feb-25 02:33N 49°13' W 123°54'1918.7
2015-Feb-25 01:33N 49°19' W 123°27'8 7.7
2015-Feb-25 00:34N 49°23' W 123°17'1918.5
2015-Feb-24 23:33N 49°15' W 123°42'10 7.4
2015-Feb-24 22:12N 49°12' W 123°57'1218.6
2015-Feb-24 21:33N 49°17' W 123°40'1712.2
2015-Feb-24 20:11N 49°23' W 123°16'915.2
2015-Feb-24 19:34N 49°18' W 123°29'2013.8
2015-Feb-24 18:08N 49°12' W 123°57'1016.7
2015-Feb-24 17:34N 49°16' W 123°44'1919.2
2015-Feb-24 16:34N 49°23' W 123°17'9 9.2
2015-Feb-24 15:34N 49°18' W 123°28'2019.5
2015-Feb-24 14:33N 49°12' W 123°57'1 0.1
2015-Feb-24 05:08N 49°12' W 123°57'0 0.3
2015-Feb-24 04:33N 49°12' W 123°57'0 0.2
2015-Feb-24 03:14N 49°12' W 123°57'4 6.6
2015-Feb-24 02:34N 49°14' W 123°52'2019.7
2015-Feb-24 01:34N 49°20' W 123°23'5 5.0
2015-Feb-24 00:34N 49°23' W 123°17'1818.5
2015-Feb-23 23:33N 49°15' W 123°43'10 7.3
2015-Feb-23 22:13N 49°12' W 123°57'1219.1
2015-Feb-23 21:34N 49°17' W 123°39'1612.8
2015-Feb-23 20:17N 49°23' W 123°16'1014.0
2015-Feb-23 19:33N 49°17' W 123°30'1912.6
2015-Feb-23 18:05N 49°12' W 123°57'1018.8
2015-Feb-23 17:33N 49°16' W 123°43'1919.0
2015-Feb-23 16:33N 49°23' W 123°16'9 9.0
2015-Feb-23 15:34N 49°18' W 123°27'2019.7
2015-Feb-23 14:33N 49°12' W 123°57'4 0.5
2015-Feb-23 06:34N 49°14' W 123°51'2020.1
2015-Feb-23 05:33N 49°20' W 123°22'1 0.6
2015-Feb-23 04:33N 49°20' W 123°21'2020.1
2015-Feb-23 03:33N 49°14' W 123°51'2 1.6
2015-Feb-23 02:33N 49°14' W 123°53'2019.8
2015-Feb-23 01:34N 49°19' W 123°24'6 5.9
2015-Feb-23 00:33N 49°23' W 123°17'1919.1
2015-Feb-22 23:33N 49°15' W 123°43'9 7.4
2015-Feb-22 22:18N 49°12' W 123°57'1419.4
2015-Feb-22 21:33N 49°17' W 123°37'1410.9
2015-Feb-22 20:14N 49°23' W 123°16'1116.4
2015-Feb-22 19:33N 49°17' W 123°31'1812.1
2015-Feb-22 18:05N 49°12' W 123°57'1019.0
2015-Feb-22 17:33N 49°16' W 123°43'1918.6
2015-Feb-22 16:33N 49°23' W 123°16'9 9.1
2015-Feb-22 15:33N 49°18' W 123°28'2019.8
2015-Feb-22 14:33N 49°12' W 123°57'0 0.0
2015-Feb-22 06:33N 49°12' W 123°57'1919.3
2015-Feb-22 05:34N 49°19' W 123°29'8 8.2
2015-Feb-22 04:34N 49°23' W 123°18'1919.4
2015-Feb-22 03:34N 49°15' W 123°45'  

Dump ship's entire track history